createdAt,value
2022-11-06T00:00:43.475Z,3.80
2022-11-06T00:03:10.798Z,3.37
2022-11-06T00:06:00.460Z,3.80
2022-11-06T00:08:34.359Z,3.67
2022-11-06T00:11:01.436Z,3.63
2022-11-06T00:13:29.865Z,3.03
2022-11-06T00:16:15.308Z,3.67
2022-11-06T00:19:00.927Z,3.00
2022-11-06T00:21:29.535Z,4.20
2022-11-06T00:23:58.978Z,3.23
2022-11-06T00:26:28.410Z,2.93
2022-11-06T00:28:56.402Z,2.97
2022-11-06T00:31:26.416Z,2.73
2022-11-06T00:33:54.582Z,2.97
2022-11-06T00:36:23.051Z,3.03
2022-11-06T00:38:54.627Z,2.80
2022-11-06T00:41:22.373Z,3.30
2022-11-06T00:43:54.753Z,5.00
2022-11-06T00:46:21.941Z,4.37
2022-11-06T00:48:48.730Z,3.30
2022-11-06T00:51:19.725Z,3.40
2022-11-06T00:53:46.930Z,3.93
2022-11-06T00:56:32.906Z,3.20
2022-11-06T00:59:01.306Z,3.80
2022-11-06T01:01:36.602Z,3.10
2022-11-06T01:04:06.263Z,3.70
2022-11-06T01:06:35.951Z,3.00
2022-11-06T01:09:04.271Z,3.30
2022-11-06T01:11:52.476Z,2.27
2022-11-06T01:14:41.228Z,2.83
2022-11-06T01:17:08.038Z,2.10
2022-11-06T01:19:34.814Z,2.50
2022-11-06T01:22:01.588Z,1.87
2022-11-06T01:24:29.351Z,2.20
2022-11-06T01:29:44.457Z,2.17
2022-11-06T01:34:55.448Z,1.67
2022-11-06T01:37:22.188Z,1.97
2022-11-06T01:39:50.671Z,2.50
2022-11-06T01:42:20.985Z,2.27
2022-11-06T01:45:32.833Z,1.93
2022-11-06T01:48:18.967Z,1.90
2022-11-06T01:50:49.567Z,2.20
2022-11-06T01:53:17.036Z,2.03
2022-11-06T01:55:47.544Z,2.27
2022-11-06T01:58:18.532Z,2.47
2022-11-06T02:00:46.806Z,2.03
2022-11-06T02:03:14.145Z,1.87
2022-11-06T02:05:41.907Z,1.83
2022-11-06T02:08:12.430Z,2.27
2022-11-06T02:10:39.946Z,1.90
2022-11-06T02:13:39.836Z,1.70
2022-11-06T02:16:16.311Z,2.43
2022-11-06T02:19:07.427Z,2.93
2022-11-06T02:21:44.303Z,2.80
2022-11-06T02:24:19.886Z,2.23
2022-11-06T02:27:05.476Z,2.63
2022-11-06T02:29:56.986Z,1.87
2022-11-06T02:32:42.026Z,1.87
2022-11-06T02:35:35.063Z,2.03
2022-11-06T02:38:11.486Z,2.83
2022-11-06T02:40:44.824Z,2.03
2022-11-06T02:43:33.099Z,4.93
2022-11-06T02:46:24.057Z,2.30
2022-11-06T02:49:00.608Z,2.70
2022-11-06T02:51:32.196Z,1.70
2022-11-06T02:54:02.631Z,1.87
2022-11-06T02:56:34.571Z,2.90
2022-11-06T02:59:24.528Z,2.57
2022-11-06T03:02:01.675Z,2.53
2022-11-06T03:04:44.766Z,2.13
2022-11-06T03:07:31.266Z,2.30
2022-11-06T03:09:58.215Z,3.53
2022-11-06T03:12:31.968Z,2.50
2022-11-06T03:15:17.114Z,2.90
2022-11-06T03:17:59.664Z,2.40
2022-11-06T03:20:37.728Z,2.90
2022-11-06T03:23:20.821Z,2.30
2022-11-06T03:28:56.298Z,2.20
2022-11-06T03:31:36.724Z,2.03
2022-11-06T03:34:15.516Z,2.87
2022-11-06T03:36:47.660Z,2.80
2022-11-06T03:39:21.741Z,1.83
2022-11-06T03:41:56.307Z,2.83
2022-11-06T03:44:27.758Z,2.37
2022-11-06T03:47:02.339Z,3.00
2022-11-06T03:49:55.996Z,3.27
2022-11-06T03:52:31.839Z,3.27
2022-11-06T03:55:18.882Z,3.30
2022-11-06T03:57:54.131Z,2.70
2022-11-06T04:00:40.825Z,3.63
2022-11-06T04:03:43.296Z,2.57
2022-11-06T04:06:52.724Z,3.10
2022-11-06T04:09:43.192Z,3.37
2022-11-06T04:12:34.269Z,3.33
2022-11-06T04:15:02.678Z,3.13
2022-11-06T04:17:30.006Z,3.07
2022-11-06T04:20:01.250Z,2.73
2022-11-06T04:22:44.677Z,2.53
2022-11-06T04:25:52.354Z,2.27
2022-11-06T04:29:12.705Z,2.80
2022-11-06T04:32:03.457Z,2.33
2022-11-06T04:34:43.247Z,3.00
2022-11-06T04:37:25.568Z,2.40
2022-11-06T04:40:02.644Z,2.30
2022-11-06T04:42:48.024Z,3.20
2022-11-06T04:48:09.161Z,2.63
2022-11-06T04:51:00.040Z,2.40
2022-11-06T04:53:31.183Z,2.43
2022-11-06T04:56:06.300Z,3.03
2022-11-06T04:58:33.121Z,3.40
2022-11-06T05:00:59.938Z,2.67
2022-11-06T05:03:26.765Z,3.00
2022-11-06T05:05:53.492Z,2.80
2022-11-06T05:08:21.047Z,3.20
2022-11-06T05:10:48.628Z,3.40
2022-11-06T05:13:16.109Z,2.80
2022-11-06T05:15:42.911Z,3.20
2022-11-06T05:18:09.950Z,3.97
2022-11-06T05:20:36.849Z,3.80
2022-11-06T05:23:04.445Z,4.17
2022-11-06T05:25:40.209Z,4.47
2022-11-06T05:28:25.659Z,5.07
2022-11-06T05:30:52.376Z,5.47
2022-11-06T05:33:19.089Z,5.97
2022-11-06T05:35:45.795Z,5.63
2022-11-06T05:38:13.111Z,4.97
2022-11-06T05:40:40.064Z,4.47
2022-11-06T05:43:06.824Z,5.37
2022-11-06T05:45:33.675Z,5.47
2022-11-06T05:48:00.426Z,6.77
2022-11-06T05:50:45.540Z,5.83
2022-11-06T05:53:15.449Z,5.33
2022-11-06T05:55:42.472Z,5.63
2022-11-06T05:58:09.283Z,5.33
2022-11-06T06:00:36.051Z,4.93
2022-11-06T06:03:02.925Z,6.53
2022-11-06T06:05:29.816Z,4.60
2022-11-06T06:07:56.802Z,5.00
2022-11-06T06:10:23.516Z,5.53
2022-11-06T06:12:50.619Z,5.13
2022-11-06T06:15:17.771Z,5.53
2022-11-06T06:17:45.555Z,4.77
2022-11-06T06:22:57.788Z,5.00
2022-11-06T06:25:25.428Z,5.53
2022-11-06T06:27:52.851Z,5.50
2022-11-06T06:30:20.033Z,4.23
2022-11-06T06:33:05.391Z,4.43
2022-11-06T06:35:32.594Z,5.27
2022-11-06T06:37:59.429Z,5.53
2022-11-06T06:40:26.937Z,4.90
2022-11-06T06:42:57.808Z,5.93
2022-11-06T06:45:26.036Z,6.83
2022-11-06T06:47:52.916Z,5.77
2022-11-06T06:50:19.740Z,5.07
2022-11-06T06:53:05.598Z,4.27
2022-11-06T06:55:32.408Z,4.90
2022-11-06T06:58:00.371Z,5.45
2022-11-06T07:00:28.341Z,5.93
2022-11-06T07:03:13.732Z,6.70
2022-11-06T07:05:40.599Z,6.47
2022-11-06T07:08:07.369Z,5.57
2022-11-06T07:10:34.143Z,5.47
2022-11-06T07:13:02.303Z,5.85
2022-11-06T07:15:29.084Z,6.30
2022-11-06T07:17:55.856Z,6.67
2022-11-06T07:20:22.650Z,5.73
2022-11-06T07:22:49.363Z,6.05
2022-11-06T07:25:16.233Z,5.60
2022-11-06T07:27:42.946Z,6.33
2022-11-06T07:30:10.674Z,5.03
2022-11-06T07:32:37.406Z,6.67
2022-11-06T07:35:04.481Z,4.50
2022-11-06T07:37:31.172Z,4.32
2022-11-06T07:39:57.935Z,5.00
2022-11-06T07:42:24.664Z,5.05
2022-11-06T07:45:02.453Z,4.57
2022-11-06T07:47:32.568Z,4.78
2022-11-06T07:50:00.156Z,6.55
2022-11-06T07:52:26.963Z,4.15
2022-11-06T07:54:53.835Z,5.77
2022-11-06T07:57:20.648Z,4.18
2022-11-06T07:59:47.519Z,4.53
2022-11-06T08:02:14.868Z,5.27
2022-11-06T08:04:41.745Z,5.53
2022-11-06T08:07:08.499Z,4.88
2022-11-06T08:09:35.511Z,4.32
2022-11-06T08:12:02.803Z,4.63
2022-11-06T08:14:29.561Z,4.18
2022-11-06T08:17:14.715Z,4.78
2022-11-06T08:19:41.825Z,4.90
2022-11-06T08:22:09.173Z,3.95
2022-11-06T08:24:35.986Z,4.75
2022-11-06T08:27:03.180Z,5.65
2022-11-06T08:29:29.906Z,4.97
2022-11-06T08:31:56.622Z,4.78
2022-11-06T08:34:23.540Z,4.65
2022-11-06T08:36:52.022Z,4.35
2022-11-06T08:39:18.782Z,5.53
2022-11-06T08:42:05.848Z,3.47
2022-11-06T08:44:32.834Z,5.68
2022-11-06T08:46:59.699Z,3.85
2022-11-06T08:49:26.513Z,4.38
2022-11-06T08:51:54.652Z,4.20
2022-11-06T08:54:21.524Z,4.45
2022-11-06T08:56:48.971Z,4.10
2022-11-06T09:02:00.946Z,3.97
2022-11-06T09:04:27.756Z,4.15
2022-11-06T09:06:56.631Z,4.07
2022-11-06T09:09:23.427Z,3.97
2022-11-06T09:11:50.216Z,4.35
2022-11-06T09:14:17.119Z,4.05
2022-11-06T09:16:43.962Z,4.25
2022-11-06T09:19:10.760Z,5.97
2022-11-06T09:24:43.223Z,5.30
2022-11-06T09:27:08.952Z,5.50
2022-11-06T09:29:35.699Z,5.15
2022-11-06T09:32:21.434Z,4.65
2022-11-06T09:35:07.894Z,3.10
2022-11-06T09:37:34.669Z,4.40
2022-11-06T09:40:06.116Z,5.45
2022-11-06T09:43:02.503Z,4.50
2022-11-06T09:45:32.821Z,5.18
2022-11-06T09:48:17.404Z,3.70
2022-11-06T09:51:03.796Z,3.97
2022-11-06T09:53:36.393Z,4.05
2022-11-06T09:56:06.036Z,4.75
2022-11-06T09:58:38.829Z,3.83
2022-11-06T10:01:25.972Z,5.90
2022-11-06T10:03:57.850Z,4.85
2022-11-06T10:06:26.115Z,5.55
2022-11-06T10:08:57.085Z,6.38
2022-11-06T10:11:49.588Z,5.53
2022-11-06T10:15:13.864Z,5.28
2022-11-06T10:17:55.439Z,5.30
2022-11-06T10:20:43.800Z,4.97
2022-11-06T10:23:37.640Z,5.10
2022-11-06T10:26:08.687Z,4.82
2022-11-06T10:29:12.460Z,5.60
2022-11-06T10:32:10.248Z,4.13
2022-11-06T10:34:46.640Z,5.32
2022-11-06T10:37:27.565Z,4.07
2022-11-06T10:39:56.300Z,4.70
2022-11-06T10:42:36.766Z,3.95
2022-11-06T10:45:13.427Z,4.45
2022-11-06T10:47:46.875Z,4.18
2022-11-06T10:53:47.772Z,5.05
2022-11-06T10:56:43.986Z,6.38
2022-11-06T10:59:11.069Z,5.15
2022-11-06T11:01:39.015Z,7.22
2022-11-06T11:04:05.886Z,6.85
2022-11-06T11:06:32.841Z,7.32
2022-11-06T11:09:01.930Z,7.43
2022-11-06T11:11:29.340Z,7.35
2022-11-06T11:13:56.001Z,5.78
2022-11-06T11:16:39.902Z,6.15
2022-11-06T11:19:23.090Z,8.45
2022-11-06T11:22:15.770Z,8.18
2022-11-06T11:25:05.809Z,9.82
2022-11-06T11:27:37.611Z,8.30
2022-11-06T11:30:26.587Z,9.00
2022-11-06T11:32:54.501Z,8.68
2022-11-06T11:35:27.651Z,8.07
2022-11-06T11:38:07.022Z,8.40
2022-11-06T11:40:37.550Z,8.93
2022-11-06T11:43:19.655Z,8.18
2022-11-06T11:46:16.428Z,10.38
2022-11-06T11:48:56.255Z,9.02
2022-11-06T11:51:31.141Z,9.05
2022-11-06T11:54:13.184Z,10.70
2022-11-06T11:59:49.668Z,9.95
2022-11-06T12:02:27.930Z,11.40
2022-11-06T12:05:18.018Z,12.90
2022-11-06T12:07:53.264Z,9.40
2022-11-06T12:10:35.978Z,11.73
2022-11-06T12:16:25.361Z,10.90
2022-11-06T12:18:58.841Z,11.20
2022-11-06T12:21:40.523Z,10.95
2022-11-06T12:24:14.352Z,10.60
2022-11-06T12:27:02.717Z,11.55
2022-11-06T12:29:35.430Z,11.50
2022-11-06T12:32:16.741Z,12.73
2022-11-06T12:34:49.624Z,13.05
2022-11-06T12:37:36.197Z,13.90
2022-11-06T12:40:28.505Z,11.07
2022-11-06T12:43:19.726Z,11.90
2022-11-06T12:46:03.216Z,11.60
2022-11-06T12:48:48.738Z,11.93
2022-11-06T12:51:21.474Z,10.80
2022-11-06T12:54:24.899Z,11.45
2022-11-06T12:57:19.348Z,10.93
2022-11-06T12:59:46.112Z,10.90
2022-11-06T13:02:42.897Z,9.30
2022-11-06T13:05:17.693Z,10.15
2022-11-06T13:08:15.556Z,10.77
2022-11-06T13:11:11.748Z,9.73
2022-11-06T13:13:57.388Z,10.48
2022-11-06T13:16:44.327Z,11.57
2022-11-06T13:19:24.877Z,11.68
2022-11-06T13:22:29.288Z,11.30
2022-11-06T13:25:15.352Z,9.18
2022-11-06T13:28:09.689Z,11.30
2022-11-06T13:30:39.087Z,9.80
2022-11-06T13:33:27.365Z,9.55
2022-11-06T13:35:55.053Z,9.43
2022-11-06T13:38:37.653Z,8.32
2022-11-06T13:41:20.683Z,9.77
2022-11-06T13:47:03.381Z,8.27
2022-11-06T13:49:36.280Z,7.65
2022-11-06T13:52:10.801Z,7.40
2022-11-06T13:55:14.469Z,6.65
2022-11-06T13:58:05.327Z,5.18
2022-11-06T14:01:21.527Z,5.30
2022-11-06T14:04:14.562Z,5.13
2022-11-06T14:07:01.682Z,5.35
2022-11-06T14:09:32.692Z,5.57
2022-11-06T14:12:04.054Z,5.43
2022-11-06T14:14:32.911Z,5.88
2022-11-06T14:20:25.229Z,4.93
2022-11-06T14:22:52.099Z,5.20
2022-11-06T14:25:28.139Z,3.92
2022-11-06T14:27:54.944Z,3.72
2022-11-06T14:30:57.445Z,3.33
2022-11-06T14:33:43.242Z,3.92
2022-11-06T14:36:14.436Z,3.83
2022-11-06T14:38:42.753Z,3.80
2022-11-06T14:41:34.553Z,3.08
2022-11-06T14:44:31.095Z,4.47
2022-11-06T14:47:02.480Z,3.83
2022-11-06T14:49:42.232Z,3.65
2022-11-06T14:52:13.857Z,3.67
2022-11-06T14:55:05.548Z,3.78
2022-11-06T14:57:44.027Z,3.63
2022-11-06T15:00:33.173Z,3.55
2022-11-06T15:03:01.343Z,3.72
2022-11-06T15:05:51.924Z,4.70
2022-11-06T15:08:47.302Z,2.95
2022-11-06T15:11:47.717Z,3.50
2022-11-06T15:14:15.254Z,3.50
2022-11-06T15:16:44.109Z,3.42
2022-11-06T15:19:29.968Z,4.22
2022-11-06T15:22:19.389Z,3.47
2022-11-06T15:24:55.679Z,3.72
2022-11-06T15:27:27.673Z,2.97
2022-11-06T15:29:57.892Z,2.65
2022-11-06T15:32:33.165Z,4.72
2022-11-06T15:35:03.087Z,3.65
2022-11-06T15:37:48.239Z,2.78
2022-11-06T15:40:24.509Z,3.40
2022-11-06T15:45:36.465Z,3.38
2022-11-06T15:48:26.047Z,3.45
2022-11-06T15:51:25.663Z,3.85
2022-11-06T15:53:52.829Z,3.47
2022-11-06T15:56:25.685Z,4.82
2022-11-06T15:59:07.092Z,3.72
2022-11-06T16:01:34.775Z,4.38
2022-11-06T16:04:09.425Z,4.57
2022-11-06T16:06:38.930Z,4.20
2022-11-06T16:09:43.356Z,3.63
2022-11-06T16:12:15.802Z,5.32
2022-11-06T16:14:46.883Z,4.28
2022-11-06T16:17:24.231Z,4.80
2022-11-06T16:19:52.686Z,4.30
2022-11-06T16:22:27.323Z,4.30
2022-11-06T16:25:20.177Z,4.30
2022-11-06T16:27:46.950Z,5.45
2022-11-06T16:30:25.346Z,4.45
2022-11-06T16:32:52.858Z,4.93
2022-11-06T16:35:37.045Z,4.22
2022-11-06T16:38:39.297Z,4.65
2022-11-06T16:41:02.667Z,3.58
2022-11-06T16:43:29.548Z,4.13
2022-11-06T16:46:07.015Z,8.02
2022-11-06T16:48:45.552Z,6.68
2022-11-06T16:51:15.468Z,5.18
2022-11-06T16:53:53.947Z,3.88
2022-11-06T16:56:39.513Z,4.85
2022-11-06T16:59:09.634Z,4.15
2022-11-06T17:01:45.324Z,4.82
2022-11-06T17:04:22.843Z,4.90
2022-11-06T17:07:27.440Z,4.82
2022-11-06T17:09:56.260Z,5.82
2022-11-06T17:12:23.263Z,4.60
2022-11-06T17:14:50.261Z,4.95
2022-11-06T17:17:26.678Z,6.80
2022-11-06T17:19:53.471Z,5.65
2022-11-06T17:22:26.521Z,5.40
2022-11-06T17:25:12.541Z,5.05
2022-11-06T17:27:40.724Z,5.20
2022-11-06T17:30:14.555Z,5.35
2022-11-06T17:33:01.446Z,6.70
2022-11-06T17:35:29.113Z,7.07
2022-11-06T17:37:55.840Z,5.05
2022-11-06T17:40:22.597Z,7.43
2022-11-06T17:42:49.674Z,7.57
2022-11-06T17:45:16.556Z,6.22
2022-11-06T17:48:02.616Z,6.57
2022-11-06T17:50:47.926Z,5.95
2022-11-06T17:53:14.932Z,6.30
2022-11-06T17:55:42.085Z,7.40
2022-11-06T17:58:08.940Z,5.47
2022-11-06T18:00:35.660Z,6.80
2022-11-06T18:05:46.986Z,7.15
2022-11-06T18:08:32.190Z,7.10
2022-11-06T18:11:17.214Z,6.25
2022-11-06T18:14:03.357Z,7.53
2022-11-06T18:16:39.712Z,6.30
2022-11-06T18:19:10.933Z,6.95
2022-11-06T18:21:37.673Z,6.28
2022-11-06T18:24:04.792Z,4.65
2022-11-06T18:26:31.805Z,4.97
2022-11-06T18:29:17.696Z,5.13
2022-11-06T18:32:03.129Z,4.40
2022-11-06T18:34:30.035Z,5.18
2022-11-06T18:36:56.846Z,4.60
2022-11-06T18:39:23.634Z,4.22
2022-11-06T18:41:50.431Z,5.43
2022-11-06T18:44:18.217Z,5.30
2022-11-06T18:46:46.099Z,5.22
2022-11-06T18:49:13.123Z,5.55
2022-11-06T18:51:40.633Z,5.35
2022-11-06T18:54:09.164Z,5.38
2022-11-06T18:56:37.374Z,4.90
2022-11-06T18:59:06.134Z,6.07
2022-11-06T19:01:53.102Z,5.95
2022-11-06T19:04:21.898Z,7.80
2022-11-06T19:09:51.793Z,10.00
2022-11-06T19:12:18.488Z,9.10
2022-11-06T19:14:45.340Z,9.25
2022-11-06T19:17:12.069Z,9.27
2022-11-06T19:19:57.731Z,7.70
2022-11-06T19:25:09.109Z,7.10
2022-11-06T19:27:35.892Z,6.05
2022-11-06T19:30:02.740Z,6.18
2022-11-06T19:32:30.176Z,5.32
2022-11-06T19:34:56.985Z,5.22
2022-11-06T19:37:23.958Z,5.57
2022-11-06T19:39:50.725Z,6.38
2022-11-06T19:45:22.143Z,5.13
2022-11-06T19:48:07.698Z,6.50
2022-11-06T19:50:58.545Z,5.80
2022-11-06T19:53:23.252Z,5.30
2022-11-06T19:55:50.611Z,5.20
2022-11-06T19:58:19.196Z,5.32
2022-11-06T20:01:08.741Z,4.60
2022-11-06T20:03:36.392Z,4.00
2022-11-06T20:06:07.840Z,4.18
2022-11-06T20:08:37.031Z,4.30
2022-11-06T20:11:14.242Z,3.97
2022-11-06T20:13:42.232Z,4.50
2022-11-06T20:16:37.416Z,4.50
2022-11-06T20:19:04.253Z,5.28
2022-11-06T20:21:30.978Z,6.03
2022-11-06T20:23:58.300Z,6.75
2022-11-06T20:26:25.324Z,6.72
2022-11-06T20:29:29.252Z,6.90
2022-11-06T20:31:56.108Z,5.63
2022-11-06T20:34:22.862Z,7.40
2022-11-06T20:36:49.727Z,6.53
2022-11-06T20:39:16.981Z,7.13
2022-11-06T20:41:43.775Z,6.75
2022-11-06T20:44:10.542Z,6.95
2022-11-06T20:46:56.485Z,7.72
2022-11-06T20:49:23.402Z,6.88
2022-11-06T20:52:12.801Z,7.50
2022-11-06T20:54:36.862Z,7.70
2022-11-06T20:57:22.186Z,7.38
2022-11-06T20:59:49.046Z,7.00
2022-11-06T21:02:15.942Z,8.00
2022-11-06T21:04:43.493Z,6.25
2022-11-06T21:07:10.412Z,7.88
2022-11-06T21:09:37.465Z,6.72
2022-11-06T21:12:23.590Z,7.00
2022-11-06T21:14:50.713Z,6.75
2022-11-06T21:17:17.802Z,6.35
2022-11-06T21:19:44.668Z,6.55
2022-11-06T21:22:11.382Z,6.05
2022-11-06T21:24:56.361Z,6.60
2022-11-06T21:27:23.237Z,6.50
2022-11-06T21:30:27.573Z,5.93
2022-11-06T21:32:54.402Z,6.20
2022-11-06T21:35:21.133Z,5.10
2022-11-06T21:37:47.934Z,6.00
2022-11-06T21:40:17.356Z,5.72
2022-11-06T21:43:03.069Z,5.03
2022-11-06T21:45:29.917Z,4.63
2022-11-06T21:48:40.237Z,5.50
2022-11-06T21:51:07.673Z,5.50
2022-11-06T21:53:53.394Z,6.38
2022-11-06T21:56:25.806Z,5.05
2022-11-06T21:59:13.072Z,5.10
2022-11-06T22:01:41.292Z,6.05
2022-11-06T22:04:09.639Z,4.45
2022-11-06T22:06:38.848Z,5.47
2022-11-06T22:09:05.540Z,5.63
2022-11-06T22:11:35.202Z,4.85
2022-11-06T22:14:06.056Z,4.68
2022-11-06T22:16:52.330Z,3.90
2022-11-06T22:19:19.201Z,4.38
2022-11-06T22:22:04.550Z,4.47
2022-11-06T22:24:31.313Z,5.82
2022-11-06T22:27:16.712Z,4.90
2022-11-06T22:30:02.574Z,5.10
2022-11-06T22:32:29.421Z,5.85
2022-11-06T22:34:56.198Z,6.30
2022-11-06T22:37:22.969Z,6.90
2022-11-06T22:39:49.702Z,8.38
2022-11-06T22:42:16.612Z,5.80
2022-11-06T22:44:43.609Z,6.65
2022-11-06T22:47:10.379Z,7.72
2022-11-06T22:49:37.124Z,6.40
2022-11-06T22:52:04.071Z,6.60
2022-11-06T22:54:30.932Z,7.07
2022-11-06T22:56:57.658Z,6.68
2022-11-06T22:59:24.604Z,7.22
2022-11-06T23:01:51.405Z,7.55
2022-11-06T23:04:18.219Z,7.00
2022-11-06T23:06:45.818Z,6.57
2022-11-06T23:09:13.453Z,7.53
2022-11-06T23:11:40.364Z,7.03
2022-11-06T23:14:09.158Z,5.75
2022-11-06T23:16:55.237Z,5.93
2022-11-06T23:19:22.518Z,4.40
2022-11-06T23:21:50.308Z,4.63
2022-11-06T23:24:17.226Z,4.00
2022-11-06T23:26:44.576Z,3.85
2022-11-06T23:29:11.981Z,4.20
2022-11-06T23:31:38.965Z,5.23
2022-11-06T23:34:24.588Z,3.70
2022-11-06T23:36:51.561Z,3.97
2022-11-06T23:39:36.832Z,3.85
2022-11-06T23:42:03.680Z,3.17
2022-11-06T23:44:49.033Z,3.65
2022-11-06T23:47:15.789Z,3.37
2022-11-06T23:49:42.485Z,3.53
2022-11-06T23:52:09.230Z,4.07
2022-11-06T23:54:36.012Z,2.60
2022-11-06T23:57:02.758Z,3.75
2022-11-06T23:59:29.536Z,3.25
